Weather at Aviosuperficie Il Falco

Public forecast

Using degrees Celsius for public forecast. Weather courtesy of forecast.io.

Closest aviation weather report (METAR) to Aviosuperficie Il Falco

Closest report is Turin Airport, 13.3 nm (24.5 km) WSW. Retrieved 2021/02/27 23:20 UTC (59 minutes ago):

LIMF 272320Z AUTO 03009KT 9999 BKN067 12/04 Q1030

Closest aviation forecast (TAF) to Aviosuperficie Il Falco

Closest forecast is Turin Airport, 13.3 nm (24.5 km) WSW. Retrieved 2021-02-28 00:00 UTC (19 minutes ago):

TAF LIMF 272300Z 2800/2824 04008KT CAVOK